Time;durP1;ratioP1;P1;durP2;ratioP2;P2;SDS_P1;SDS_P2;PMS_P1;PMS_P2;Temp;Humidity;BMP_temperature;BMP_pressure;BME280_temperature;BME280_humidity;BME280_pressure;Samples;Min_cycle;Max_cycle;Signal;HPM_P1;HPM_P2
2022/11/04 00:01:48;;;;;;;11.57;3.33;;;;;;;8.03;100.00;100063.88;5074193;28;20099;-46
2022/11/04 00:04:16;;;;;;;7.18;2.72;;;;;;;7.98;100.00;100073.16;5074711;28;20052;-44
2022/11/04 00:06:42;;;;;;;6.47;2.72;;;;;;;7.93;100.00;100070.47;5074926;28;20064;-47
2022/11/04 00:09:10;;;;;;;7.22;2.35;;;;;;;7.86;100.00;100064.31;5073694;28;20047;-44
2022/11/04 00:14:20;;;;;;;3.85;2.05;;;;;;;7.81;100.00;100068.44;5074807;28;20126;-46
2022/11/04 00:28:41;;;;;;;6.70;3.30;;;;;;;7.82;100.00;100072.72;5074737;28;20371;-47
2022/11/04 00:30:27;;;;;;;9.27;4.93;;;;;;;7.78;100.00;100076.03;5073946;28;20038;-47
2022/11/04 00:35:37;;;;;;;19.85;12.02;;;;;;;7.84;100.00;100077.94;5074382;28;20495;-48
2022/11/04 00:38:02;;;;;;;30.58;16.10;;;;;;;7.86;100.00;100079.72;5073355;28;20029;-48
2022/11/04 00:40:27;;;;;;;27.50;16.88;;;;;;;7.85;100.00;100082.19;5074195;28;20040;-47
2022/11/04 00:42:53;;;;;;;35.65;20.35;;;;;;;7.89;100.00;100089.19;5073066;28;20028;-45
2022/11/04 00:45:18;;;;;;;37.17;21.63;;;;;;;7.91;100.00;100092.66;5074198;28;20029;-47
2022/11/04 00:47:43;;;;;;;40.40;25.17;;;;;;;7.96;100.00;100090.22;5073925;28;20040;-47
2022/11/04 00:50:08;;;;;;;52.03;30.13;;;;;;;8.04;100.00;100088.72;5072875;28;20017;-48
2022/11/04 00:52:34;;;;;;;59.78;34.88;;;;;;;8.10;100.00;100096.59;5074074;28;20117;-47
2022/11/04 00:54:59;;;;;;;65.70;35.70;;;;;;;8.16;100.00;100101.03;5073799;28;20034;-48
2022/11/04 00:57:24;;;;;;;64.38;35.80;;;;;;;8.20;100.00;100092.59;5073255;28;20033;-46
2022/11/04 00:59:50;;;;;;;66.72;38.10;;;;;;;8.22;100.00;100096.94;5073472;28;20020;-48
2022/11/04 01:02:15;;;;;;;73.13;40.35;;;;;;;8.27;100.00;100093.63;5073455;28;20032;-47
2022/11/04 01:04:40;;;;;;;70.85;41.00;;;;;;;8.31;100.00;100100.56;5072909;28;20038;-46
2022/11/04 01:07:06;;;;;;;71.18;40.75;;;;;;;8.32;100.00;100103.19;5073532;28;20456;-47
2022/11/04 01:09:31;;;;;;;66.03;40.08;;;;;;;8.35;100.00;100100.72;5073333;28;20029;-47
2022/11/04 01:11:56;;;;;;;64.97;39.65;;;;;;;8.36;100.00;100105.00;5072591;28;20031;-47
2022/11/04 01:14:22;;;;;;;62.15;39.00;;;;;;;8.35;100.00;100108.41;5073561;28;20016;-48
2022/11/04 01:16:50;;;;;;;58.47;35.33;;;;;;;8.33;100.00;100109.19;5073540;28;20032;-48
2022/11/04 01:19:16;;;;;;;65.45;37.65;;;;;;;8.31;100.00;100113.41;5072304;28;20020;-46
2022/11/04 01:21:41;;;;;;;58.25;34.15;;;;;;;8.28;100.00;100110.78;5073397;28;20033;-48
2022/11/04 01:24:07;;;;;;;60.13;34.72;;;;;;;8.22;100.00;100116.59;5073178;28;20115;-48
2022/11/04 01:26:33;;;;;;;61.75;34.53;;;;;;;8.21;100.00;100127.69;5072418;28;20112;-47
2022/11/04 01:28:59;;;;;;;61.20;34.65;;;;;;;8.17;100.00;100125.88;5072993;28;20020;-47
2022/11/04 01:31:27;;;;;;;59.25;34.95;;;;;;;8.15;100.00;100135.25;5073404;28;20449;-47
2022/11/04 01:33:53;;;;;;;63.55;34.15;;;;;;;8.15;100.00;100133.53;5072059;28;20392;-43
2022/11/04 01:36:19;;;;;;;64.10;36.28;;;;;;;8.15;100.00;100128.41;5073274;28;20021;-45
2022/11/04 01:38:44;;;;;;;67.35;35.88;;;;;;;8.11;100.00;100118.88;5073331;28;20063;-46
2022/11/04 01:41:19;;;;;;;66.85;34.47;;;;;;;8.10;100.00;100135.09;5071785;28;20071;-47
2022/11/04 01:43:49;;;;;;;65.82;35.20;;;;;;;8.07;100.00;100125.63;5073188;28;20111;-48
2022/11/04 01:46:41;;;;;;;63.17;33.90;;;;;;;8.06;100.00;100128.16;5071873;28;20097;-46
2022/11/04 01:49:16;;;;;;;62.00;32.65;;;;;;;8.00;100.00;100127.97;5072836;28;20080;-46
2022/11/04 01:51:42;;;;;;;55.83;32.00;;;;;;;7.96;100.00;100126.16;5073180;28;20035;-48
2022/11/04 01:54:10;;;;;;;66.03;32.63;;;;;;;7.91;100.00;100126.88;5071911;28;20029;-43
2022/11/04 01:56:36;;;;;;;;;;;;;;;7.95;100.00;100125.25;5073412;28;20031;-44
2022/11/04 01:59:09;;;;;;;65.25;31.75;;;;;;;7.84;100.00;100129.22;5072475;28;20280;-47
2022/11/04 02:01:34;;;;;;;55.35;28.52;;;;;;;7.79;100.00;100126.53;5072005;28;20029;-46
2022/11/04 02:04:24;;;;;;;57.83;29.33;;;;;;;7.76;100.00;100126.44;5072647;28;20105;-45
2022/11/04 02:06:47;;;;;;;57.55;27.33;;;;;;;7.70;100.00;100128.81;5072853;28;20159;-46
2022/11/04 02:09:13;;;;;;;60.08;25.33;;;;;;;7.65;100.00;100130.38;5071616;28;20479;-46
2022/11/04 02:14:22;;;;;;;55.47;23.70;;;;;;;7.57;100.00;100133.56;5072427;28;20043;-45
2022/11/04 02:16:48;;;;;;;50.38;23.13;;;;;;;7.54;100.00;100130.94;5072797;28;20020;-44
2022/11/04 02:19:29;;;;;;;47.33;20.45;;;;;;;7.52;100.00;100135.13;5072382;28;20024;-46
2022/11/04 02:22:27;;;;;;;46.33;20.45;;;;;;;7.52;100.00;100140.25;5072041;28;20103;-46
2022/11/04 02:25:29;;;;;;;45.35;19.42;;;;;;;7.49;100.00;100139.28;5076619;28;20078;-43
2022/11/04 02:28:32;;;;;;;41.67;19.42;;;;;;;7.45;100.00;100148.59;5076484;28;20106;-46
2022/11/04 02:31:30;;;;;;;38.13;17.60;;;;;;;7.41;100.00;100149.31;5076612;28;20060;-47
2022/11/04 02:34:11;;;;;;;35.92;17.35;;;;;;;7.40;100.00;100152.72;5076346;28;20028;-46
2022/11/04 02:36:47;;;;;;;38.35;16.60;;;;;;;7.35;100.00;100165.38;5075731;28;20055;-48
2022/11/04 02:39:48;;;;;;;51.07;18.37;;;;;;;7.36;100.00;100163.66;5076371;28;20043;-45
2022/11/04 02:42:39;;;;;;;33.67;14.60;;;;;;;7.30;100.00;100163.50;5022667;28;20094;-46
2022/11/04 02:45:23;;;;;;;37.67;15.50;;;;;;;7.31;100.00;100167.78;5076282;28;20040;-47
2022/11/04 02:47:56;;;;;;;36.60;14.57;;;;;;;7.27;100.00;100158.25;5076086;28;20128;-47
2022/11/04 02:50:31;;;;;;;33.58;15.00;;;;;;;7.25;100.00;100158.22;5075658;28;20110;-47
2022/11/04 02:53:04;;;;;;;31.92;14.63;;;;;;;7.18;100.00;100159.72;5075946;28;20059;-46
2022/11/04 02:55:46;;;;;;;39.30;14.23;;;;;;;7.18;100.00;100158.81;5076240;28;20016;-46
2022/11/04 02:58:20;;;;;;;38.47;13.50;;;;;;;7.16;100.00;100161.34;5075276;28;20024;-45
2022/11/04 03:00:48;;;;;;;40.80;13.35;;;;;;;7.13;100.00;100156.13;5076150;28;20029;-48
2022/11/04 03:03:19;;;;;;;31.77;13.27;;;;;;;7.06;100.00;100151.63;5075598;28;20519;-47
2022/11/04 03:05:48;;;;;;;42.28;12.50;;;;;;;7.06;100.00;100154.19;5075095;28;20028;-46
2022/11/04 03:08:20;;;;;;;30.00;11.85;;;;;;;7.06;100.00;100159.31;5075561;28;20376;-47
2022/11/04 03:10:52;;;;;;;24.25;10.35;;;;;;;7.01;100.00;100159.16;5075240;28;20085;-47
2022/11/04 03:14:03;;;;;;;25.90;10.68;;;;;;;7.02;100.00;100162.59;5076017;28;20074;-46
2022/11/04 03:16:43;;;;;;;25.38;10.00;;;;;;;7.00;100.00;100162.56;5029939;28;20123;-47
2022/11/04 03:19:19;;;;;;;31.17;10.90;;;;;;;7.00;100.00;100170.22;5074824;28;20021;-47
2022/11/04 03:21:56;;;;;;;25.55;10.00;;;;;;;7.01;100.00;100171.09;5075646;28;20487;-47
2022/11/04 03:24:21;;;;;;;29.45;10.30;;;;;;;6.99;100.00;100172.75;5075250;28;20239;-48
2022/11/04 03:27:26;;;;;;;29.52;11.43;;;;;;;6.97;100.00;100184.63;5075022;28;20017;-48
2022/11/04 03:29:57;;;;;;;31.58;10.25;;;;;;;6.92;100.00;100184.50;5051931;28;20086;-47
2022/11/04 03:32:46;;;;;;;30.55;10.82;;;;;;;6.90;100.00;100184.41;5074742;28;20020;-47
2022/11/04 03:35:15;;;;;;;32.60;10.65;;;;;;;6.90;100.00;100189.53;5074150;28;20125;-43
2022/11/04 03:37:41;;;;;;;32.70;10.60;;;;;;;6.87;100.00;100186.88;5075514;28;20035;-45
2022/11/04 03:40:07;;;;;;;30.70;10.50;;;;;;;6.85;100.00;100192.78;5074114;28;20380;-46
2022/11/04 03:42:39;;;;;;;31.15;9.98;;;;;;;6.84;100.00;100193.59;5075124;28;20060;-47
2022/11/04 03:45:05;;;;;;;27.88;10.13;;;;;;;6.74;100.00;100188.16;5075015;28;20111;-48
2022/11/04 03:47:31;;;;;;;36.20;11.10;;;;;;;6.75;100.00;100189.91;5074356;28;20044;-44
2022/11/04 03:50:04;;;;;;;38.35;10.82;;;;;;;6.74;100.00;100194.97;5075092;28;20025;-47
2022/11/04 03:52:29;;;;;;;29.17;10.50;;;;;;;6.69;100.00;100199.06;5075398;28;20024;-47
2022/11/04 03:54:55;;;;;;;32.78;10.52;;;;;;;6.67;100.00;100193.00;5074170;28;20020;-46
2022/11/04 03:57:30;;;;;;;29.45;10.38;;;;;;;6.65;100.00;100202.31;5074995;28;20081;-44
2022/11/04 04:00:13;;;;;;;38.33;10.13;;;;;;;6.65;100.00;100197.19;5073688;28;20033;-47
2022/11/04 04:02:53;;;;;;;28.77;9.93;;;;;;;6.59;100.00;100196.16;5075235;28;20105;-47
2022/11/04 04:05:27;;;;;;;41.00;10.68;;;;;;;6.53;100.00;100198.53;5075160;28;20020;-44
2022/11/04 04:08:00;;;;;;;30.25;10.00;;;;;;;6.54;100.00;100190.00;5074050;28;20031;-43
2022/11/04 04:10:38;;;;;;;35.63;9.75;;;;;;;6.46;100.00;100193.16;5074839;28;20028;-45
2022/11/04 04:13:21;;;;;;;31.42;9.98;;;;;;;6.41;100.00;100198.09;5074612;28;20025;-47
2022/11/04 04:16:06;;;;;;;29.92;9.80;;;;;;;6.39;100.00;100200.59;5074007;28;20032;-48
2022/11/04 04:18:50;;;;;;;33.47;10.00;;;;;;;6.34;100.00;100201.22;5074576;28;20050;-44
2022/11/04 04:21:20;;;;;;;24.10;9.38;;;;;;;6.19;100.00;100210.09;5073629;28;20028;-47
2022/11/04 04:29:23;;;;;;;37.40;11.20;;;;;;;6.22;100.00;100215.34;5074195;28;20098;-45
2022/11/04 04:31:48;;;;;;;25.23;9.77;;;;;;;6.09;100.00;100213.13;5074569;28;20031;-48
2022/11/04 04:34:34;;;;;;;30.77;9.93;;;;;;;6.10;100.00;100222.53;5074138;28;20021;-46
2022/11/04 04:37:02;;;;;;;26.17;9.98;;;;;;;6.05;100.00;100221.50;5072781;28;20477;-47
2022/11/04 04:45:31;;;;;;;27.25;9.82;;;;;;;5.79;100.00;100234.13;5074069;28;20073;-48
2022/11/04 04:47:56;;;;;;;35.08;11.32;;;;;;;5.84;100.00;100234.31;5073934;28;20032;-47
2022/11/04 04:50:26;;;;;;;31.48;10.63;;;;;;;5.76;100.00;100231.47;5073419;28;20025;-47
2022/11/04 04:52:55;;;;;;;29.83;11.25;;;;;;;5.73;100.00;100228.75;5074054;28;20017;-46
2022/11/04 04:55:20;;;;;;;28.98;10.80;;;;;;;5.72;100.00;100229.56;5073920;28;20573;-47
2022/11/04 04:57:46;;;;;;;37.75;11.32;;;;;;;5.68;100.00;100230.28;5073067;28;20029;-47
2022/11/04 05:00:19;;;;;;;39.97;12.07;;;;;;;5.70;100.00;100231.22;5073283;28;20020;-47
2022/11/04 05:02:44;;;;;;;39.60;11.95;;;;;;;5.65;100.00;100237.84;5073938;28;20082;-47
2022/11/04 05:05:12;;;;;;;35.85;12.77;;;;;;;5.60;100.00;100235.97;5072742;28;20472;-48
2022/11/04 05:07:37;;;;;;;45.03;13.73;;;;;;;5.63;100.00;100237.78;5073500;28;20460;-47
2022/11/04 05:10:03;;;;;;;35.47;12.25;;;;;;;5.45;100.00;100235.34;5072927;28;20039;-45
2022/11/04 05:13:24;;;;;;;34.65;13.15;;;;;;;5.45;100.00;100230.25;5073168;28;20037;-46
2022/11/04 05:15:13;;;;;;;34.22;10.98;;;;;;;5.35;100.00;100239.22;5072975;28;20042;-48
2022/11/04 05:17:39;;;;;;;40.83;12.60;;;;;;;5.34;100.00;100254.47;5072853;28;20020;-47
2022/11/04 05:20:04;;;;;;;42.00;13.43;;;;;;;5.25;100.00;100243.09;5072982;28;20059;-48
2022/11/04 05:22:30;;;;;;;52.75;18.48;;;;;;;5.36;100.00;100255.41;5073371;28;20024;-44
2022/11/04 05:24:55;;;;;;;50.35;17.90;;;;;;;5.35;100.00;100257.09;5072310;28;20028;-46
2022/11/04 05:27:20;;;;;;;51.17;18.95;;;;;;;5.37;100.00;100263.16;5073129;28;20099;-44
2022/11/04 05:29:45;;;;;;;54.78;21.20;;;;;;;5.40;100.00;100265.81;5073384;28;20025;-47
2022/11/04 05:32:11;;;;;;;55.03;21.73;;;;;;;5.43;100.00;100265.06;5072083;28;20050;-44
2022/11/04 05:34:36;;;;;;;58.90;22.35;;;;;;;5.45;100.00;100266.03;5073403;28;20025;-46
2022/11/04 05:37:01;;;;;;;47.03;17.98;;;;;;;5.48;100.00;100280.63;5073091;28;20025;-46
2022/11/04 05:39:26;;;;;;;45.67;18.95;;;;;;;5.52;100.00;100278.22;5072320;28;20032;-47
2022/11/04 05:41:52;;;;;;;47.22;20.25;;;;;;;5.59;100.00;100276.78;5072907;28;20521;-46
2022/11/04 05:44:17;;;;;;;49.42;20.33;;;;;;;5.68;100.00;100273.72;5073546;28;20033;-47
2022/11/04 05:46:42;;;;;;;47.35;20.80;;;;;;;5.72;100.00;100273.03;5072260;28;20051;-46
2022/11/04 05:49:08;;;;;;;61.58;24.65;;;;;;;5.83;100.00;100279.47;5072865;28;20081;-48
2022/11/04 05:51:33;;;;;;;72.75;26.33;;;;;;;5.92;100.00;100279.81;5073090;28;20035;-48
2022/11/04 05:53:59;;;;;;;71.05;26.13;;;;;;;6.02;100.00;100283.66;5071922;28;20028;-46
2022/11/04 05:56:24;;;;;;;74.25;27.48;;;;;;;6.07;100.00;100287.25;5072260;28;20031;-46
2022/11/04 05:58:50;;;;;;;83.70;26.33;;;;;;;6.12;100.00;100286.56;5072648;28;20036;-47
2022/11/04 06:01:38;;;;;;;59.75;23.70;;;;;;;6.14;100.00;100293.47;5071905;28;20074;-46
2022/11/04 06:04:04;;;;;;;55.45;21.98;;;;;;;6.08;100.00;100291.56;5072557;28;20096;-47
2022/11/04 06:06:35;;;;;;;55.42;22.27;;;;;;;6.09;100.00;100297.53;5071998;28;20025;-48
2022/11/04 06:09:01;;;;;;;55.95;21.83;;;;;;;6.11;100.00;100293.38;5072337;28;20537;-46
2022/11/04 06:11:28;;;;;;;64.80;22.92;;;;;;;6.07;100.00;100301.75;5072913;28;20081;-45
2022/11/04 06:13:55;;;;;;;56.53;22.05;;;;;;;6.06;100.00;100297.44;5071872;28;20035;-46
2022/11/04 06:16:20;;;;;;;58.17;20.75;;;;;;;6.04;100.00;100296.50;5072715;28;20025;-47
2022/11/04 06:18:46;;;;;;;58.95;21.83;;;;;;;6.07;100.00;100294.06;5072738;28;20070;-47
2022/11/04 06:21:14;;;;;;;62.90;21.75;;;;;;;6.06;100.00;100300.00;5071494;28;20032;-46
2022/11/04 06:23:43;;;;;;;54.38;23.48;;;;;;;6.11;100.00;100298.50;5072432;28;20032;-47
2022/11/04 06:26:10;;;;;;;60.97;22.38;;;;;;;6.11;100.00;100301.06;5072398;28;20074;-47
2022/11/04 06:28:35;;;;;;;53.35;22.33;;;;;;;6.08;100.00;100306.91;5071806;28;20029;-47
2022/11/04 06:31:03;;;;;;;57.70;21.73;;;;;;;6.10;100.00;100309.53;5072115;28;20353;-47
2022/11/04 06:33:30;;;;;;;64.38;24.35;;;;;;;6.13;100.00;100308.78;5072210;28;20451;-46
2022/11/04 06:36:03;;;;;;;61.95;25.15;;;;;;;6.21;100.00;100318.50;5071380;28;20036;-47
2022/11/04 06:38:30;;;;;;;68.18;24.30;;;;;;;6.19;100.00;100314.13;5072644;28;20032;-47
2022/11/04 06:40:56;;;;;;;65.93;24.33;;;;;;;6.22;100.00;100304.00;5072060;28;20032;-45
2022/11/04 06:43:22;;;;;;;60.42;23.75;;;;;;;6.23;100.00;100311.75;5071597;28;20045;-44
2022/11/04 06:45:55;;;;;;;61.55;23.13;;;;;;;6.18;100.00;100315.81;5072294;28;20039;-47
2022/11/04 06:48:20;;;;;;;58.45;22.85;;;;;;;6.18;100.00;100320.06;5072299;28;20147;-47
2022/11/04 06:50:45;;;;;;;53.83;22.65;;;;;;;6.19;100.00;100332.06;5071478;28;20062;-46
2022/11/04 06:53:10;;;;;;;66.10;24.23;;;;;;;6.24;100.00;100333.97;5072046;28;20377;-46
2022/11/04 06:55:37;;;;;;;58.85;23.60;;;;;;;6.32;100.00;100343.63;5071682;28;20044;-45
2022/11/04 06:58:02;;;;;;;52.40;23.77;;;;;;;6.36;100.00;100348.91;5072085;28;20032;-46
2022/11/04 07:00:27;;;;;;;50.40;23.80;;;;;;;6.45;100.00;100353.53;5072220;28;20102;-47
2022/11/04 07:02:53;;;;;;;59.42;25.52;;;;;;;6.54;100.00;100351.31;5071190;28;20031;-44
2022/11/04 07:05:18;;;;;;;63.15;25.40;;;;;;;6.56;100.00;100356.50;5072328;28;20415;-47
2022/11/04 07:07:43;;;;;;;54.95;24.65;;;;;;;6.65;100.00;100358.50;5072511;28;20021;-47
2022/11/04 07:10:09;;;;;;;64.38;26.05;;;;;;;6.71;100.00;100358.75;5074961;28;20100;-48
2022/11/04 07:12:34;;;;;;;59.15;24.60;;;;;;;6.77;100.00;100361.56;5075913;28;20103;-47
2022/11/04 07:14:59;;;;;;;62.90;25.75;;;;;;;6.86;100.00;100361.88;5075433;28;20020;-46
2022/11/04 07:17:25;;;;;;;63.90;25.95;;;;;;;6.88;100.00;100367.94;5074878;28;20028;-45
2022/11/04 07:19:50;;;;;;;58.25;23.25;;;;;;;6.88;100.00;100367.94;5075455;28;20081;-47
2022/11/04 07:22:15;;;;;;;62.20;26.20;;;;;;;6.94;100.00;100363.88;5075303;28;20057;-47
2022/11/04 07:24:41;;;;;;;56.00;23.75;;;;;;;6.93;100.00;100375.78;5074778;28;20035;-46
2022/11/04 07:27:06;;;;;;;47.42;18.83;;;;;;;6.95;100.00;100365.63;5075386;28;20023;-48
2022/11/04 07:29:32;;;;;;;50.58;16.60;;;;;;;6.92;100.00;100372.38;5075564;28;20066;-45
2022/11/04 07:31:57;;;;;;;47.92;15.65;;;;;;;6.92;100.00;100367.25;5074453;28;20029;-46
2022/11/04 07:34:23;;;;;;;53.13;16.85;;;;;;;6.97;100.00;100374.22;5075353;28;20024;-46
2022/11/04 07:36:48;;;;;;;42.42;16.75;;;;;;;6.97;100.00;100369.97;5075593;28;20099;-45
2022/11/04 07:39:13;;;;;;;43.90;15.88;;;;;;;7.07;100.00;100386.53;5074468;28;20460;-43
2022/11/04 07:41:39;;;;;;;45.78;17.58;;;;;;;7.13;100.00;100379.09;5075312;28;20028;-45
2022/11/04 07:44:04;;;;;;;51.08;18.23;;;;;;;7.16;100.00;100380.88;5075039;28;20107;-42
2022/11/04 07:46:31;;;;;;;43.35;17.13;;;;;;;7.20;100.00;100383.59;5074214;28;20056;-47
2022/11/04 07:48:57;;;;;;;46.13;17.52;;;;;;;7.21;100.00;100385.34;5074703;28;20391;-45
2022/11/04 07:51:24;;;;;;;46.58;16.58;;;;;;;7.27;100.00;100384.72;5075146;28;20512;-46
2022/11/04 07:53:49;;;;;;;52.10;17.27;;;;;;;7.25;100.00;100384.63;5074561;28;20118;-48
2022/11/04 07:56:15;;;;;;;48.90;16.70;;;;;;;7.30;100.00;100399.31;5074817;28;20052;-44
2022/11/04 07:58:41;;;;;;;48.35;16.48;;;;;;;7.32;100.00;100393.44;5075081;28;20025;-45
2022/11/04 08:01:09;;;;;;;49.65;18.67;;;;;;;7.50;100.00;100406.03;5073953;28;20383;-47
2022/11/04 08:03:35;;;;;;;51.05;18.95;;;;;;;7.62;100.00;100402.13;5074825;28;20024;-46
2022/11/04 08:06:03;;;;;;;50.88;21.45;;;;;;;7.79;100.00;100401.00;5074003;28;20399;-47
2022/11/04 08:08:28;;;;;;;43.00;18.70;;;;;;;7.75;100.00;100404.31;5074737;28;20493;-47
2022/11/04 08:11:03;;;;;;;41.35;16.95;;;;;;;7.87;100.00;100414.09;5074337;28;20060;-48
2022/11/04 08:13:31;;;;;;;47.42;17.67;;;;;;;7.99;100.00;100411.06;5074119;28;20078;-46
2022/11/04 08:16:01;;;;;;;57.85;19.33;;;;;;;8.14;100.00;100411.56;5074437;28;20052;-45
2022/11/04 08:18:27;;;;;;;39.38;15.93;;;;;;;8.06;100.00;100413.03;5074865;28;20024;-48
2022/11/04 08:20:52;;;;;;;40.38;16.42;;;;;;;8.12;100.00;100418.34;5073071;28;20567;-43
2022/11/04 08:23:18;;;;;;;47.50;16.52;;;;;;;8.11;100.00;100425.97;5074555;28;20020;-46
2022/11/04 08:25:44;;;;;;;42.67;16.05;;;;;;;8.09;100.00;100425.94;5074597;28;20017;-47
2022/11/04 08:28:16;;;;;;;47.60;16.02;;;;;;;8.14;100.00;100431.25;5073413;28;20017;-45
2022/11/04 08:30:54;;;;;;;44.08;16.48;;;;;;;8.22;100.00;100443.50;5074366;28;20025;-45
2022/11/04 08:33:20;;;;;;;46.45;18.45;;;;;;;8.40;100.00;100444.91;5074527;28;20043;-47
2022/11/04 08:35:45;;;;;;;54.35;22.52;;;;;;;8.76;100.00;100435.78;5073768;28;20024;-47
2022/11/04 08:38:11;;;;;;;54.45;19.50;;;;;;;8.74;100.00;100443.44;5074027;28;20368;-45
2022/11/04 08:40:36;;;;;;;36.50;15.82;;;;;;;8.78;100.00;100437.56;5074039;28;20028;-46
2022/11/04 08:43:01;;;;;;;39.38;16.33;;;;;;;8.90;100.00;100439.63;5072953;28;20040;-45
2022/11/04 08:45:27;;;;;;;51.92;16.15;;;;;;;8.95;100.00;100438.06;5074030;28;20021;-47
2022/11/04 08:47:52;;;;;;;40.55;13.55;;;;;;;9.01;100.00;100445.06;5073646;28;20052;-45
2022/11/04 08:50:18;;;;;;;42.30;14.88;;;;;;;9.02;100.00;100444.25;5073378;28;20017;-48
2022/11/04 08:52:43;;;;;;;34.92;15.63;;;;;;;8.98;100.00;100447.56;5073970;28;20040;-46
2022/11/04 08:55:09;;;;;;;43.90;16.10;;;;;;;9.02;100.00;100444.25;5072840;28;20020;-46
2022/11/04 08:57:34;;;;;;;43.90;14.88;;;;;;;8.99;100.00;100446.75;5073680;28;20036;-46
2022/11/04 09:00:00;;;;;;;42.75;16.52;;;;;;;9.07;100.00;100456.41;5073340;28;20060;-47
2022/11/04 09:02:25;;;;;;;46.78;18.70;;;;;;;9.14;100.00;100466.88;5072986;28;20033;-47
2022/11/04 09:04:50;;;;;;;49.90;19.40;;;;;;;9.25;100.00;100470.63;5073838;28;20508;-47
2022/11/04 09:07:16;;;;;;;48.67;19.00;;;;;;;9.54;100.00;100481.75;5073347;28;20108;-47
2022/11/04 09:09:42;;;;;;;47.22;19.60;;;;;;;9.58;100.00;100482.72;5072867;28;20452;-44
2022/11/04 09:12:09;;;;;;;40.15;16.08;;;;;;;9.45;100.00;100489.22;5073038;28;20024;-48
2022/11/04 09:14:34;;;;;;;38.37;16.33;;;;;;;9.47;100.00;100487.53;5073610;28;20021;-46
2022/11/04 09:16:59;;;;;;;44.33;16.67;;;;;;;9.49;100.00;100488.47;5072301;28;20281;-46
2022/11/04 09:19:24;;;;;;;43.22;18.45;;;;;;;9.59;100.00;100491.28;5073335;28;20025;-47
2022/11/04 09:21:50;;;;;;;49.75;18.70;;;;;;;9.73;100.00;100484.81;5073229;28;20100;-47
2022/11/04 09:24:15;;;;;;;46.80;20.55;;;;;;;9.89;100.00;100493.84;5072385;28;20036;-47
2022/11/04 09:26:40;;;;;;;45.55;18.25;;;;;;;9.91;100.00;100492.16;5073194;28;20095;-47
2022/11/04 09:29:08;;;;;;;35.70;16.65;;;;;;;9.91;100.00;100491.31;5072872;28;20021;-48
2022/11/04 09:31:34;;;;;;;37.65;15.05;;;;;;;9.87;100.00;100501.50;5072425;28;20388;-46
2022/11/04 09:33:59;;;;;;;39.85;15.25;;;;;;;9.89;100.00;100499.00;5073331;28;20456;-46
2022/11/04 09:36:24;;;;;;;42.63;15.50;;;;;;;9.94;100.00;100504.25;5073247;28;20036;-49
2022/11/04 09:38:51;;;;;;;45.40;16.58;;;;;;;9.90;100.00;100505.84;5072280;28;20368;-46
2022/11/04 09:41:19;;;;;;;45.25;15.80;;;;;;;9.89;100.00;100511.88;5072673;28;20029;-48
2022/11/04 09:44:11;;;;;;;35.25;15.27;;;;;;;9.94;100.00;100519.69;5072924;28;20024;-47
2022/11/04 09:46:38;;;;;;;43.53;16.20;;;;;;;9.93;100.00;100525.66;5072176;28;20048;-47
2022/11/04 09:49:08;;;;;;;40.95;15.48;;;;;;;9.93;100.00;100530.81;5072742;28;20032;-48
2022/11/04 09:51:35;;;;;;;38.35;14.88;;;;;;;9.88;100.00;100534.13;5072272;28;20024;-46
2022/11/04 09:54:07;;;;;;;45.20;15.55;;;;;;;9.99;100.00;100546.44;5072483;28;20040;-47
2022/11/04 09:56:41;;;;;;;45.35;15.90;;;;;;;10.04;100.00;100540.59;5073055;28;20106;-48
2022/11/04 09:59:10;;;;;;;41.03;16.25;;;;;;;9.95;100.00;100549.75;5071958;28;20025;-49
2022/11/04 10:01:45;;;;;;;49.67;16.92;;;;;;;9.99;100.00;100536.13;5072801;28;20027;-43
2022/11/04 10:04:29;;;;;;;41.08;17.60;;;;;;;10.01;100.00;100545.63;5072593;28;20029;-46
2022/11/04 10:07:16;;;;;;;45.53;18.50;;;;;;;10.14;100.00;100549.41;5071592;28;20463;-47
2022/11/04 10:10:27;;;;;;;45.20;19.08;;;;;;;10.35;100.00;100551.72;5072931;28;20048;-46
2022/11/04 10:13:31;;;;;;;41.67;17.30;;;;;;;10.57;100.00;100561.69;4970891;28;20035;-44
2022/11/04 10:16:08;;;;;;;45.35;17.25;;;;;;;10.68;100.00;100555.09;5072589;28;20028;-45
2022/11/04 10:18:53;;;;;;;47.17;17.80;;;;;;;10.92;100.00;100554.81;5072842;28;20024;-47
2022/11/04 10:22:00;;;;;;;42.45;17.33;;;;;;;11.28;100.00;100553.03;5072001;28;20115;-48
2022/11/04 10:24:34;;;;;;;43.72;18.50;;;;;;;11.12;99.13;100560.44;5072795;28;20036;-48
2022/11/04 10:27:03;;;;;;;50.97;18.05;;;;;;;11.09;100.00;100567.22;5071541;28;20036;-46
2022/11/04 10:29:43;;;;;;;34.90;17.23;;;;;;;11.10;100.00;100566.38;5072595;28;20086;-47
2022/11/04 10:32:20;;;;;;;44.13;17.23;;;;;;;11.18;99.37;100567.41;5072465;28;20090;-48
2022/11/04 10:34:55;;;;;;;53.35;17.83;;;;;;;11.33;99.89;100566.91;5071851;28;20029;-48
2022/11/04 10:37:20;;;;;;;37.17;17.08;;;;;;;11.20;99.18;100568.34;5072473;28;20028;-48
2022/11/04 10:39:46;;;;;;;46.10;19.02;;;;;;;11.75;99.56;100567.78;5072298;28;20028;-47
2022/11/04 10:42:18;;;;;;;37.63;18.30;;;;;;;12.03;97.66;100576.97;5071596;28;20350;-48
2022/11/04 10:44:45;;;;;;;47.70;18.75;;;;;;;12.46;95.31;100592.38;5076334;28;20033;-47
2022/11/04 10:47:36;;;;;;;46.00;18.23;;;;;;;12.87;93.51;100588.78;5076028;28;20036;-48
2022/11/04 10:50:21;;;;;;;34.28;17.42;;;;;;;12.59;90.54;100593.47;5075268;28;20032;-48
2022/11/04 10:52:46;;;;;;;45.38;17.30;;;;;;;12.72;89.74;100604.91;5076481;28;20036;-49
2022/11/04 10:55:38;;;;;;;42.28;17.20;;;;;;;12.75;91.30;100594.63;5075098;28;20111;-47
2022/11/04 10:58:15;;;;;;;42.15;18.05;;;;;;;12.78;91.11;100595.56;5075781;28;20392;-48
2022/11/04 11:00:41;;;;;;;44.88;17.85;;;;;;;12.82;88.53;100592.16;5076077;28;20468;-47
2022/11/04 11:03:33;;;;;;;43.92;17.85;;;;;;;13.22;90.37;100591.03;5074986;28;20029;-48
2022/11/04 11:06:32;;;;;;;44.65;18.08;;;;;;;13.47;89.92;100590.56;5075740;28;20094;-48
2022/11/04 11:09:11;;;;;;;44.80;17.65;;;;;;;13.31;84.33;100588.56;5020541;28;20040;-45
2022/11/04 11:11:51;;;;;;;44.40;18.88;;;;;;;13.92;86.37;100595.44;5076044;28;20360;-45
2022/11/04 11:14:18;;;;;;;37.40;17.00;;;;;;;13.63;82.80;100593.34;5075652;28;20024;-46
2022/11/04 11:16:44;;;;;;;41.67;17.38;;;;;;;14.15;82.81;100596.56;5075043;28;20067;-47
2022/11/04 11:19:19;;;;;;;38.97;16.95;;;;;;;14.55;81.77;100601.28;5075427;28;20537;-49
2022/11/04 11:21:53;;;;;;;39.22;16.27;;;;;;;14.02;78.69;100601.59;5075818;28;20043;-49
2022/11/04 11:24:21;;;;;;;30.02;15.90;;;;;;;13.93;80.61;100610.13;5075058;28;20082;-47
2022/11/04 11:26:51;;;;;;;43.08;16.40;;;;;;;13.67;81.63;100602.88;5075636;28;20055;-46
2022/11/04 11:29:27;;;;;;;38.22;17.15;;;;;;;13.80;83.41;100612.56;5075342;28;20021;-48
2022/11/04 11:31:55;;;;;;;38.08;16.77;;;;;;;13.79;81.17;100613.41;5074448;28;20024;-44
2022/11/04 11:34:27;;;;;;;39.25;16.55;;;;;;;13.94;82.57;100609.28;5075382;28;20442;-47
2022/11/04 11:36:54;;;;;;;32.78;15.85;;;;;;;14.24;81.02;100602.69;5075378;28;20024;-44
2022/11/04 11:39:22;;;;;;;32.47;14.80;;;;;;;14.93;76.63;100597.31;5075406;28;20036;-49
2022/11/04 11:41:58;;;;;;;33.22;14.60;;;;;;;15.08;77.38;100600.03;5075299;28;20032;-47
2022/11/04 11:44:30;;;;;;;32.13;15.73;;;;;;;14.59;77.76;100596.97;5074526;28;20032;-44
2022/11/04 11:47:00;;;;;;;47.00;17.35;;;;;;;14.35;78.77;100595.91;5074816;28;20040;-48
2022/11/04 11:49:29;;;;;;;43.15;17.30;;;;;;;14.42;80.56;100597.72;5075564;28;20021;-49
2022/11/04 11:52:14;;;;;;;36.10;17.52;;;;;;;14.13;78.39;100598.25;5074028;28;20085;-48
2022/11/04 11:54:42;;;;;;;33.58;16.00;;;;;;;14.13;77.54;100597.41;5073845;28;20024;-48
2022/11/04 11:57:27;;;;;;;40.10;17.42;;;;;;;13.85;80.69;100614.34;5074843;28;20108;-46